createdAt,value
2018-03-14T00:02:18.304Z,74.77
2018-03-14T00:04:45.915Z,74.65
2018-03-14T00:07:13.551Z,74.98
2018-03-14T00:09:41.153Z,74.11
2018-03-14T00:12:08.782Z,73.95
2018-03-14T00:14:36.485Z,74.36
2018-03-14T00:17:04.531Z,74.81
2018-03-14T00:19:32.151Z,74.93
2018-03-14T00:21:59.762Z,74.57
2018-03-14T00:24:27.393Z,74.57
2018-03-14T00:26:55.014Z,75.63
2018-03-14T00:29:22.648Z,75.84
2018-03-14T00:31:50.262Z,75.14
2018-03-14T00:34:18.181Z,75.48
2018-03-14T00:36:45.868Z,76.02
2018-03-14T00:39:13.487Z,75.92
2018-03-14T00:41:41.125Z,76.08
2018-03-14T00:44:08.809Z,77.90
2018-03-14T00:46:36.519Z,77.36
2018-03-14T00:49:04.162Z,77.62
2018-03-14T00:51:32.018Z,77.85
2018-03-14T00:53:59.635Z,78.05
2018-03-14T00:56:27.321Z,79.35
2018-03-14T00:58:55.037Z,80.14
2018-03-14T01:01:22.815Z,79.86
2018-03-14T01:03:50.543Z,81.14
2018-03-14T01:06:18.235Z,79.55
2018-03-14T01:08:45.963Z,79.80
2018-03-14T01:11:13.662Z,79.36
2018-03-14T01:13:41.347Z,79.80
2018-03-14T01:16:08.998Z,79.64
2018-03-14T01:18:36.680Z,79.67
2018-03-14T01:21:04.392Z,79.12
2018-03-14T01:23:32.082Z,78.93
2018-03-14T01:25:59.906Z,79.57
2018-03-14T01:28:27.515Z,79.26
2018-03-14T01:30:55.204Z,79.47
2018-03-14T01:33:22.922Z,79.14
2018-03-14T01:35:50.539Z,78.64
2018-03-14T01:38:18.255Z,78.57
2018-03-14T01:40:45.945Z,78.66
2018-03-14T01:43:13.767Z,79.02
2018-03-14T01:45:41.377Z,78.93
2018-03-14T01:48:09.071Z,78.38
2018-03-14T01:50:36.774Z,78.55
2018-03-14T01:53:16.282Z,78.75
2018-03-14T01:55:43.993Z,78.40
2018-03-14T01:58:11.675Z,77.99
2018-03-14T02:00:39.316Z,78.25
2018-03-14T02:03:06.951Z,78.39
2018-03-14T02:05:34.644Z,79.58
2018-03-14T02:08:02.274Z,78.87
2018-03-14T02:10:29.889Z,78.94
2018-03-14T02:12:57.520Z,78.76
2018-03-14T02:15:25.128Z,78.77
2018-03-14T02:17:52.820Z,78.63
2018-03-14T02:20:20.453Z,78.93
2018-03-14T02:22:48.152Z,79.83
2018-03-14T02:25:15.869Z,79.91
2018-03-14T02:27:43.571Z,79.48
2018-03-14T02:30:11.182Z,79.11
2018-03-14T02:32:38.893Z,79.54
2018-03-14T02:35:06.675Z,79.88
2018-03-14T02:37:34.317Z,79.42
2018-03-14T02:40:01.927Z,79.43
2018-03-14T02:42:29.645Z,79.91
2018-03-14T02:44:57.340Z,79.96
2018-03-14T02:47:24.925Z,80.02
2018-03-14T02:49:52.532Z,80.75
2018-03-14T02:52:20.125Z,80.86
2018-03-14T02:54:47.754Z,79.72
2018-03-14T02:57:15.344Z,79.80
2018-03-14T02:59:42.935Z,80.47
2018-03-14T03:02:10.616Z,79.95
2018-03-14T03:04:38.296Z,80.58
2018-03-14T03:07:05.955Z,81.13
2018-03-14T03:09:33.545Z,80.66
2018-03-14T03:12:01.212Z,81.44
2018-03-14T03:14:28.899Z,82.31
2018-03-14T03:16:56.500Z,81.81
2018-03-14T03:19:24.196Z,81.53
2018-03-14T03:21:51.864Z,81.56
2018-03-14T03:24:19.533Z,81.40
2018-03-14T03:26:47.224Z,81.33
2018-03-14T03:29:14.901Z,81.36
2018-03-14T03:31:42.774Z,80.82
2018-03-14T03:34:10.446Z,81.30
2018-03-14T03:36:38.123Z,81.07
2018-03-14T03:39:05.815Z,80.42
2018-03-14T03:41:33.405Z,80.73
2018-03-14T03:44:01.119Z,81.87
2018-03-14T03:46:28.751Z,81.39
2018-03-14T03:48:56.423Z,81.51
2018-03-14T03:51:24.106Z,81.03
2018-03-14T03:53:51.847Z,81.10
2018-03-14T03:56:19.519Z,80.29
2018-03-14T03:58:47.132Z,79.92
2018-03-14T04:01:14.797Z,79.69
2018-03-14T04:03:42.453Z,80.69
2018-03-14T04:06:10.151Z,80.14
2018-03-14T04:08:37.766Z,79.52
2018-03-14T04:11:05.477Z,80.08
2018-03-14T04:13:33.149Z,80.53
2018-03-14T04:16:00.818Z,79.39
2018-03-14T04:18:28.491Z,79.11
2018-03-14T04:20:56.149Z,79.36
2018-03-14T04:23:23.765Z,79.94
2018-03-14T04:25:51.453Z,79.00
2018-03-14T04:28:19.119Z,78.69
2018-03-14T04:30:46.813Z,78.54
2018-03-14T04:33:14.429Z,79.56
2018-03-14T04:35:42.067Z,78.96
2018-03-14T04:38:09.652Z,79.53
2018-03-14T04:40:37.316Z,79.13
2018-03-14T04:43:05.021Z,79.22
2018-03-14T04:45:32.696Z,78.25
2018-03-14T04:48:00.408Z,78.37
2018-03-14T04:50:28.072Z,78.02
2018-03-14T04:52:55.759Z,77.72
2018-03-14T04:55:23.460Z,79.05
2018-03-14T04:57:51.123Z,78.63
2018-03-14T05:00:18.920Z,78.32
2018-03-14T05:02:46.596Z,78.53
2018-03-14T05:05:14.188Z,78.42
2018-03-14T05:07:41.875Z,79.08
2018-03-14T05:10:09.548Z,78.67
2018-03-14T05:12:37.399Z,78.74
2018-03-14T05:15:05.485Z,78.99
2018-03-14T05:17:33.158Z,77.79
2018-03-14T05:20:00.889Z,78.26
2018-03-14T05:22:28.565Z,78.69
2018-03-14T05:24:56.364Z,77.66
2018-03-14T05:27:24.042Z,77.72
2018-03-14T05:29:51.741Z,77.77
2018-03-14T05:32:19.373Z,77.05
2018-03-14T05:34:47.055Z,77.37
2018-03-14T05:37:14.801Z,77.18
2018-03-14T05:39:42.395Z,76.57
2018-03-14T05:42:10.077Z,76.79
2018-03-14T05:44:37.691Z,76.77
2018-03-14T05:47:05.301Z,76.77
2018-03-14T05:49:32.930Z,76.95
2018-03-14T05:52:00.611Z,77.98
2018-03-14T05:54:28.297Z,77.75
2018-03-14T05:56:55.985Z,77.19
2018-03-14T05:59:23.648Z,76.93
2018-03-14T06:01:51.451Z,76.89
2018-03-14T06:04:19.073Z,76.48
2018-03-14T06:06:46.737Z,76.84
2018-03-14T06:09:14.714Z,76.70
2018-03-14T06:11:42.376Z,75.95
2018-03-14T06:14:10.229Z,75.74
2018-03-14T06:16:37.823Z,76.60
2018-03-14T06:19:05.420Z,77.00
2018-03-14T06:21:33.021Z,76.42
2018-03-14T06:24:00.621Z,77.06
2018-03-14T06:26:28.746Z,76.74
2018-03-14T06:28:56.353Z,75.81
2018-03-14T06:31:23.973Z,76.11
2018-03-14T06:33:51.592Z,76.52
2018-03-14T06:36:19.203Z,76.71
2018-03-14T06:38:47.491Z,76.94
2018-03-14T06:41:15.094Z,76.04
2018-03-14T06:43:42.676Z,75.36
2018-03-14T06:46:10.284Z,76.60
2018-03-14T06:48:37.991Z,76.81
2018-03-14T06:51:05.630Z,76.79
2018-03-14T06:53:33.232Z,76.94
2018-03-14T06:56:00.825Z,77.06
2018-03-14T06:58:40.131Z,76.15
2018-03-14T07:01:19.628Z,76.13
2018-03-14T07:03:59.086Z,75.89
2018-03-14T07:06:26.675Z,76.32
2018-03-14T07:08:54.289Z,75.98
2018-03-14T07:11:21.897Z,76.12
2018-03-14T07:13:49.865Z,76.40
2018-03-14T07:16:17.460Z,75.37
2018-03-14T07:18:45.090Z,75.45
2018-03-14T07:21:12.718Z,77.07
2018-03-14T07:23:40.387Z,76.97
2018-03-14T07:26:08.101Z,76.13
2018-03-14T07:28:35.792Z,76.22
2018-03-14T07:31:03.598Z,75.67
2018-03-14T07:33:31.183Z,75.33
2018-03-14T07:35:58.820Z,75.12
2018-03-14T07:38:26.448Z,75.13
2018-03-14T07:40:54.035Z,75.30
2018-03-14T07:43:21.657Z,75.54
2018-03-14T07:45:49.272Z,75.26
2018-03-14T07:48:17.051Z,75.34
2018-03-14T07:50:48.704Z,75.86
2018-03-14T07:53:16.675Z,74.29
2018-03-14T07:55:46.718Z,75.18
2018-03-14T07:58:14.304Z,75.27
2018-03-14T08:00:41.929Z,75.42
2018-03-14T08:03:09.532Z,74.77
2018-03-14T08:05:37.156Z,75.10
2018-03-14T08:08:04.750Z,75.06
2018-03-14T08:10:32.388Z,76.21
2018-03-14T08:13:01.060Z,75.83
2018-03-14T08:15:29.017Z,76.66
2018-03-14T08:17:56.983Z,74.48
2018-03-14T08:20:24.576Z,74.40
2018-03-14T08:22:52.243Z,75.23
2018-03-14T08:25:19.942Z,74.76
2018-03-14T08:27:47.960Z,74.52
2018-03-14T08:30:15.552Z,74.43
2018-03-14T08:32:43.358Z,74.89
2018-03-14T08:35:10.978Z,75.06
2018-03-14T08:37:38.571Z,74.10
2018-03-14T08:40:06.180Z,72.66
2018-03-14T08:42:33.800Z,73.25
2018-03-14T08:45:01.459Z,72.73
2018-03-14T08:47:29.054Z,73.22
2018-03-14T08:49:56.644Z,72.71
2018-03-14T08:52:24.260Z,73.27
2018-03-14T08:54:52.096Z,72.80
2018-03-14T08:57:20.175Z,72.31
2018-03-14T08:59:47.935Z,71.94
2018-03-14T09:02:16.751Z,70.85
2018-03-14T09:04:44.359Z,71.83
2018-03-14T09:07:12.386Z,71.84
2018-03-14T09:09:39.998Z,70.99
2018-03-14T09:12:07.645Z,71.04
2018-03-14T09:14:35.341Z,70.73
2018-03-14T09:17:02.942Z,70.17
2018-03-14T09:19:31.109Z,70.79
2018-03-14T09:21:58.879Z,70.57
2018-03-14T09:24:26.459Z,68.64
2018-03-14T09:26:54.232Z,69.08
2018-03-14T09:29:21.816Z,68.64
2018-03-14T09:31:49.444Z,68.13
2018-03-14T09:34:17.068Z,68.39
2018-03-14T09:36:44.720Z,69.32
2018-03-14T09:39:12.336Z,68.54
2018-03-14T09:41:39.914Z,66.20
2018-03-14T09:44:07.621Z,66.60
2018-03-14T09:46:35.208Z,66.05
2018-03-14T09:49:03.377Z,65.58
2018-03-14T09:51:34.124Z,65.27
2018-03-14T09:54:02.085Z,65.54
2018-03-14T09:56:29.677Z,66.48
2018-03-14T09:58:57.273Z,66.18
2018-03-14T10:01:24.891Z,66.90
2018-03-14T10:03:52.487Z,67.95
2018-03-14T10:06:20.459Z,66.41
2018-03-14T10:08:48.253Z,67.27
2018-03-14T10:11:15.858Z,69.80
2018-03-14T10:13:43.496Z,70.80
2018-03-14T10:16:11.318Z,70.39
2018-03-14T10:18:39.313Z,71.74
2018-03-14T10:21:07.184Z,71.34
2018-03-14T10:23:34.773Z,69.55
2018-03-14T10:26:02.392Z,68.39
2018-03-14T10:28:29.977Z,67.48
2018-03-14T10:30:57.612Z,67.77
2018-03-14T10:33:25.272Z,67.36
2018-03-14T10:35:53.136Z,68.39
2018-03-14T10:38:20.800Z,66.77
2018-03-14T10:40:48.402Z,66.15
2018-03-14T10:43:16.047Z,65.60
2018-03-14T10:45:43.665Z,66.37
2018-03-14T10:48:11.573Z,65.32
2018-03-14T10:50:39.635Z,66.41
2018-03-14T10:53:07.481Z,67.76
2018-03-14T10:55:35.076Z,65.88
2018-03-14T10:58:02.677Z,66.99
2018-03-14T11:00:35.806Z,65.88
2018-03-14T11:03:03.403Z,67.17
2018-03-14T11:05:31.103Z,66.92
2018-03-14T11:07:58.691Z,66.65
2018-03-14T11:10:28.213Z,65.81
2018-03-14T11:12:55.812Z,66.26
2018-03-14T11:15:23.616Z,65.35
2018-03-14T11:17:51.213Z,65.31
2018-03-14T11:20:18.972Z,66.64
2018-03-14T11:22:46.861Z,66.33
2018-03-14T11:25:14.657Z,66.75
2018-03-14T11:27:42.670Z,65.48
2018-03-14T11:30:10.618Z,63.13
2018-03-14T11:32:38.363Z,62.80
2018-03-14T11:35:05.959Z,63.07
2018-03-14T11:37:33.560Z,62.86
2018-03-14T11:40:01.181Z,61.92
2018-03-14T11:42:28.781Z,61.86
2018-03-14T11:44:58.025Z,62.19
2018-03-14T11:47:26.124Z,62.39
2018-03-14T11:49:53.713Z,62.50
2018-03-14T11:52:21.359Z,61.53
2018-03-14T11:54:49.045Z,60.40
2018-03-14T11:57:16.973Z,60.40
2018-03-14T11:59:44.813Z,60.04
2018-03-14T12:02:12.474Z,59.48
2018-03-14T12:04:40.864Z,57.96
2018-03-14T12:07:08.511Z,58.45
2018-03-14T12:09:36.243Z,58.82
2018-03-14T12:12:03.894Z,58.74
2018-03-14T12:14:32.101Z,57.61
2018-03-14T12:16:59.709Z,59.02
2018-03-14T12:19:27.326Z,55.92
2018-03-14T12:21:54.940Z,56.93
2018-03-14T12:24:22.536Z,56.12
2018-03-14T12:26:50.456Z,55.77
2018-03-14T12:29:18.330Z,55.90
2018-03-14T12:31:45.969Z,55.76
2018-03-14T12:34:13.930Z,55.87
2018-03-14T12:36:41.516Z,54.61
2018-03-14T12:39:09.144Z,54.38
2018-03-14T12:41:36.735Z,53.00
2018-03-14T12:44:04.350Z,53.30
2018-03-14T12:46:31.933Z,54.23
2018-03-14T12:48:59.564Z,54.63
2018-03-14T12:51:27.166Z,54.21
2018-03-14T12:53:54.757Z,53.79
2018-03-14T12:56:22.617Z,54.49
2018-03-14T12:58:50.372Z,53.38
2018-03-14T13:01:18.023Z,53.46
2018-03-14T13:03:45.611Z,53.04
2018-03-14T13:06:13.443Z,52.62
2018-03-14T13:08:41.039Z,53.39
2018-03-14T13:11:08.673Z,52.76
2018-03-14T13:13:36.543Z,53.35
2018-03-14T13:16:04.284Z,53.12
2018-03-14T13:18:31.900Z,52.37
2018-03-14T13:20:59.484Z,53.87
2018-03-14T13:23:27.293Z,53.52
2018-03-14T13:25:55.483Z,53.75
2018-03-14T13:28:23.356Z,54.06
2018-03-14T13:30:50.980Z,53.52
2018-03-14T13:33:18.582Z,53.58
2018-03-14T13:35:47.964Z,52.48
2018-03-14T13:38:15.553Z,50.75
2018-03-14T13:40:43.284Z,51.20
2018-03-14T13:43:10.876Z,50.81
2018-03-14T13:45:38.456Z,50.48
2018-03-14T13:48:06.091Z,50.18
2018-03-14T13:50:33.683Z,51.36
2018-03-14T13:53:01.305Z,49.88
2018-03-14T13:55:29.194Z,50.56
2018-03-14T13:57:57.438Z,49.16
2018-03-14T14:00:25.072Z,48.99
2018-03-14T14:02:52.672Z,49.85
2018-03-14T14:05:20.327Z,49.34
2018-03-14T14:07:47.920Z,49.41
2018-03-14T14:10:15.546Z,49.28
2018-03-14T14:12:43.151Z,48.63
2018-03-14T14:15:11.065Z,49.17
2018-03-14T14:17:39.058Z,48.96
2018-03-14T14:20:06.643Z,49.98
2018-03-14T14:22:34.276Z,49.84
2018-03-14T14:25:01.924Z,50.03
2018-03-14T14:27:29.812Z,49.39
2018-03-14T14:29:57.685Z,50.48
2018-03-14T14:32:25.540Z,50.20
2018-03-14T14:34:53.148Z,51.90
2018-03-14T14:37:22.319Z,51.12
2018-03-14T14:39:50.476Z,50.74
2018-03-14T14:42:18.068Z,50.94
2018-03-14T14:44:45.684Z,50.39
2018-03-14T14:47:13.272Z,49.80
2018-03-14T14:49:41.038Z,49.93
2018-03-14T14:52:08.626Z,51.45
2018-03-14T14:54:36.248Z,51.00
2018-03-14T14:57:05.592Z,50.51
2018-03-14T14:59:33.532Z,50.22
2018-03-14T15:02:01.153Z,52.00
2018-03-14T15:04:29.286Z,51.48
2018-03-14T15:06:57.204Z,51.01
2018-03-14T15:09:24.811Z,51.00
2018-03-14T15:11:52.528Z,50.33
2018-03-14T15:14:20.629Z,48.95
2018-03-14T15:16:48.593Z,47.72
2018-03-14T15:19:16.209Z,48.03
2018-03-14T15:21:43.885Z,50.09
2018-03-14T15:24:11.660Z,51.37
2018-03-14T15:26:39.556Z,52.02
2018-03-14T15:29:07.369Z,50.06
2018-03-14T15:31:35.051Z,50.90
2018-03-14T15:34:02.661Z,51.99
2018-03-14T15:36:30.324Z,51.29
2018-03-14T15:38:57.893Z,51.89
2018-03-14T15:41:25.706Z,50.75
2018-03-14T15:43:53.296Z,50.06
2018-03-14T15:46:20.900Z,48.91
2018-03-14T15:48:48.537Z,48.73
2018-03-14T15:51:16.300Z,48.98
2018-03-14T15:53:44.157Z,49.08
2018-03-14T15:56:12.072Z,49.21
2018-03-14T15:58:40.392Z,49.40
2018-03-14T16:01:08.041Z,49.70
2018-03-14T16:03:35.636Z,50.28
2018-03-14T16:06:03.260Z,49.27
2018-03-14T16:08:30.850Z,49.43
2018-03-14T16:10:58.874Z,49.55
2018-03-14T16:13:26.490Z,50.24
2018-03-14T16:15:54.139Z,49.84
2018-03-14T16:18:21.737Z,51.90
2018-03-14T16:20:49.324Z,52.79
2018-03-14T16:23:17.000Z,53.02
2018-03-14T16:25:44.893Z,52.63
2018-03-14T16:28:12.760Z,51.78
2018-03-14T16:30:40.349Z,52.15
2018-03-14T16:33:08.789Z,52.30
2018-03-14T16:35:36.516Z,52.08
2018-03-14T16:38:04.106Z,52.47
2018-03-14T16:40:31.716Z,52.80
2018-03-14T16:42:59.326Z,53.26
2018-03-14T16:45:27.316Z,53.53
2018-03-14T16:47:54.949Z,53.99
2018-03-14T16:50:22.817Z,54.71
2018-03-14T16:52:56.169Z,54.90
2018-03-14T16:55:24.616Z,55.51
2018-03-14T16:57:52.497Z,55.76
2018-03-14T17:00:20.308Z,55.72
2018-03-14T17:02:47.914Z,56.24
2018-03-14T17:05:15.871Z,55.38
2018-03-14T17:08:00.980Z,56.04
2018-03-14T17:10:29.512Z,55.86
2018-03-14T17:13:04.036Z,55.35
2018-03-14T17:15:31.688Z,55.90
2018-03-14T17:17:59.291Z,56.25
2018-03-14T17:20:26.911Z,56.40
2018-03-14T17:22:54.918Z,55.96
2018-03-14T17:25:22.663Z,56.27
2018-03-14T17:27:50.444Z,55.91
2018-03-14T17:30:18.074Z,56.99
2018-03-14T17:32:45.699Z,57.33
2018-03-14T17:35:13.294Z,57.52
2018-03-14T17:37:40.920Z,58.18
2018-03-14T17:40:08.524Z,59.25
2018-03-14T17:42:36.135Z,59.10
2018-03-14T17:45:03.727Z,57.88
2018-03-14T17:47:31.513Z,57.67
2018-03-14T17:49:59.107Z,57.67
2018-03-14T17:52:26.704Z,57.64
2018-03-14T17:54:54.344Z,58.09
2018-03-14T17:57:22.218Z,58.10
2018-03-14T17:59:50.262Z,58.87
2018-03-14T18:02:17.859Z,58.54
2018-03-14T18:04:45.496Z,58.92
2018-03-14T18:07:13.093Z,59.55
2018-03-14T18:09:40.686Z,59.56
2018-03-14T18:12:08.306Z,59.74
2018-03-14T18:14:35.922Z,60.08
2018-03-14T18:17:03.542Z,59.64
2018-03-14T18:19:31.129Z,60.00
2018-03-14T18:21:58.748Z,60.01
2018-03-14T18:24:26.422Z,60.01
2018-03-14T18:26:54.346Z,60.14
2018-03-14T18:29:22.313Z,60.16
2018-03-14T18:31:49.934Z,60.75
2018-03-14T18:34:17.568Z,60.76
2018-03-14T18:36:45.180Z,60.71
2018-03-14T18:39:12.772Z,60.97
2018-03-14T18:41:40.393Z,61.07
2018-03-14T18:44:08.378Z,60.94
2018-03-14T18:46:36.120Z,60.84
2018-03-14T18:49:03.712Z,61.13
2018-03-14T18:51:31.362Z,61.41
2018-03-14T18:53:58.982Z,61.63
2018-03-14T18:56:26.633Z,61.49
2018-03-14T18:58:54.244Z,61.98
2018-03-14T19:01:21.896Z,62.08
2018-03-14T19:03:49.777Z,62.30
2018-03-14T19:06:17.378Z,62.25
2018-03-14T19:08:44.978Z,62.48
2018-03-14T19:11:12.611Z,62.21
2018-03-14T19:13:40.209Z,62.27
2018-03-14T19:16:07.856Z,62.04
2018-03-14T19:18:35.512Z,62.08
2018-03-14T19:21:03.107Z,62.24
2018-03-14T19:23:30.716Z,62.29
2018-03-14T19:25:58.751Z,62.62
2018-03-14T19:28:26.368Z,63.27
2018-03-14T19:30:53.959Z,63.22
2018-03-14T19:33:21.826Z,63.29
2018-03-14T19:35:49.415Z,63.54
2018-03-14T19:38:17.047Z,63.55
2018-03-14T19:40:44.670Z,63.40
2018-03-14T19:43:12.272Z,63.25
2018-03-14T19:45:39.882Z,63.33
2018-03-14T19:48:07.476Z,63.77
2018-03-14T19:50:35.092Z,63.70
2018-03-14T19:53:02.725Z,63.98
2018-03-14T19:55:30.514Z,64.64
2018-03-14T19:57:58.107Z,65.14
2018-03-14T20:00:25.882Z,65.40
2018-03-14T20:02:53.501Z,66.04
2018-03-14T20:05:21.092Z,65.97
2018-03-14T20:07:48.703Z,65.43
2018-03-14T20:10:16.293Z,65.82
2018-03-14T20:12:43.903Z,65.75
2018-03-14T20:15:11.500Z,65.81
2018-03-14T20:17:39.117Z,65.90
2018-03-14T20:20:06.714Z,65.80
2018-03-14T20:22:34.359Z,65.96
2018-03-14T20:25:01.954Z,66.14
2018-03-14T20:27:29.564Z,66.77
2018-03-14T20:29:57.182Z,66.57
2018-03-14T20:32:24.818Z,67.21
2018-03-14T20:34:52.449Z,67.30
2018-03-14T20:37:20.084Z,67.80
2018-03-14T20:39:47.728Z,67.63
2018-03-14T20:42:15.323Z,67.66
2018-03-14T20:44:42.924Z,67.83
2018-03-14T20:47:10.541Z,67.49
2018-03-14T20:49:38.147Z,67.27
2018-03-14T20:52:05.760Z,67.41
2018-03-14T20:54:33.352Z,67.16
2018-03-14T20:57:00.984Z,66.85
2018-03-14T20:59:28.670Z,66.85
2018-03-14T21:01:56.450Z,66.48
2018-03-14T21:04:24.061Z,66.46
2018-03-14T21:06:51.650Z,66.21
2018-03-14T21:09:19.288Z,66.47
2018-03-14T21:11:46.888Z,66.27
2018-03-14T21:14:14.530Z,66.68
2018-03-14T21:16:42.128Z,66.28
2018-03-14T21:19:10.086Z,66.04
2018-03-14T21:21:37.714Z,66.52
2018-03-14T21:24:06.120Z,66.63
2018-03-14T21:26:33.828Z,66.70
2018-03-14T21:29:01.418Z,66.78
2018-03-14T21:31:29.056Z,66.70
2018-03-14T21:33:56.659Z,66.83
2018-03-14T21:36:24.283Z,67.09
2018-03-14T21:38:51.882Z,67.19
2018-03-14T21:41:19.489Z,67.55
2018-03-14T21:43:47.162Z,67.81
2018-03-14T21:46:14.749Z,67.47
2018-03-14T21:48:42.399Z,66.98
2018-03-14T21:51:10.007Z,67.03
2018-03-14T21:53:37.969Z,67.31
2018-03-14T21:56:05.555Z,67.11
2018-03-14T21:58:33.152Z,67.12
2018-03-14T22:01:00.846Z,66.57
2018-03-14T22:03:28.567Z,66.60
2018-03-14T22:05:56.443Z,66.78
2018-03-14T22:08:24.046Z,67.09
2018-03-14T22:10:51.678Z,66.71
2018-03-14T22:13:19.271Z,66.46
2018-03-14T22:15:46.951Z,66.46
2018-03-14T22:18:14.577Z,67.09
2018-03-14T22:20:42.272Z,66.84
2018-03-14T22:23:09.884Z,67.03
2018-03-14T22:25:37.579Z,66.91
2018-03-14T22:28:05.433Z,66.83
2018-03-14T22:30:33.044Z,66.66
2018-03-14T22:33:00.643Z,66.74
2018-03-14T22:35:28.339Z,66.59
2018-03-14T22:37:56.017Z,66.68
2018-03-14T22:40:23.631Z,66.55
2018-03-14T22:42:51.221Z,66.84
2018-03-14T22:45:19.139Z,66.51
2018-03-14T22:47:46.745Z,66.10
2018-03-14T22:50:14.432Z,66.61
2018-03-14T22:52:42.040Z,66.85
2018-03-14T22:55:09.660Z,66.60
2018-03-14T22:57:37.352Z,66.57
2018-03-14T23:00:04.941Z,67.56
2018-03-14T23:02:32.533Z,67.27
2018-03-14T23:05:00.279Z,66.90
2018-03-14T23:07:27.910Z,66.79
2018-03-14T23:09:55.651Z,67.23
2018-03-14T23:12:23.329Z,67.38
2018-03-14T23:14:50.928Z,67.16
2018-03-14T23:17:18.548Z,67.12
2018-03-14T23:19:46.216Z,67.08
2018-03-14T23:22:13.899Z,66.90
2018-03-14T23:24:41.576Z,66.62
2018-03-14T23:27:09.445Z,66.38
2018-03-14T23:29:37.118Z,66.60
2018-03-14T23:32:04.699Z,66.69
2018-03-14T23:34:32.404Z,66.87
2018-03-14T23:37:00.860Z,66.68
2018-03-14T23:39:28.562Z,66.90
2018-03-14T23:41:56.228Z,67.04
2018-03-14T23:44:24.205Z,66.69
2018-03-14T23:46:51.800Z,66.64
2018-03-14T23:49:19.574Z,66.65
2018-03-14T23:51:48.394Z,66.48
2018-03-14T23:54:16.078Z,66.31
2018-03-14T23:56:43.696Z,66.41
2018-03-14T23:59:11.372Z,66.82
